Time;durP1;ratioP1;P1;durP2;ratioP2;P2;SDS_P1;SDS_P2;PMS_P1;PMS_P2;Temp;Humidity;BMP_temperature;BMP_pressure;BME280_temperature;BME280_humidity;BME280_pressure;Samples;Min_cycle;Max_cycle;Signal;HPM_P1;HPM_P2
2022/01/18 08:56:29;;;;;;;9.00;3.90;;;;;;;;;;6046751;23;20257;-89
2022/01/18 08:59:26;;;;;;;40.13;7.53;;;;;;;;;;6247427;23;20178;-90
2022/01/18 09:01:58;;;;;;;38.47;6.60;;;;;;;;;;6247622;23;20164;-90
2022/01/18 09:04:29;;;;;;;34.23;7.27;;;;;;;;;;6249406;22;20276;-90
2022/01/18 09:07:02;;;;;;;59.77;8.37;;;;;;;;;;6254463;23;20175;-88
2022/01/18 09:09:31;;;;;;;55.17;9.87;;;;;;;;;;6249803;23;20192;-89
2022/01/18 09:11:59;;;;;;;44.23;9.00;;;;;;;;;;6257774;23;20184;-89
2022/01/18 09:14:29;;;;;;;49.17;9.20;;;;;;;;;;6257366;23;20170;-89
2022/01/18 09:16:59;;;;;;;58.17;8.70;;;;;;;;;;6254813;23;20166;-89
2022/01/18 09:19:28;;;;;;;62.63;12.33;;;;;;;;;;6255931;23;20255;-90
2022/01/18 09:21:58;;;;;;;86.00;13.40;;;;;;;;;;6249010;23;20176;-90
2022/01/18 09:24:27;;;;;;;36.80;8.43;;;;;;;;;;6251908;23;20200;-89
2022/01/18 09:26:56;;;;;;;45.43;7.87;;;;;;;;;;6252683;23;20181;-89
2022/01/18 09:29:30;;;;;;;44.87;8.50;;;;;;;;;;6254369;23;20245;-88
2022/01/18 09:32:00;;;;;;;3.63;1.83;;;;;;;;;;6253609;23;20170;-89
2022/01/18 09:34:29;;;;;;;46.37;6.60;;;;;;;;;;6256300;23;20189;-90
2022/01/18 09:36:57;;;;;;;38.60;6.53;;;;;;;;;;6254193;23;20180;-88
2022/01/18 09:39:29;;;;;;;50.93;9.30;;;;;;;;;;6254271;23;20170;-88
2022/01/18 09:42:02;;;;;;;31.77;6.43;;;;;;;;;;6250078;23;20185;-90
2022/01/18 09:44:31;;;;;;;70.40;9.57;;;;;;;;;;6247049;23;20217;-89
2022/01/18 09:47:02;;;;;;;91.37;12.77;;;;;;;;;;6248815;23;20181;-89
2022/01/18 09:49:31;;;;;;;10.67;3.17;;;;;;;;;;6246628;23;20181;-88
2022/01/18 09:51:59;;;;;;;123.97;14.73;;;;;;;;;;6248165;23;20189;-88
2022/01/18 09:54:28;;;;;;;119.07;14.60;;;;;;;;;;6255060;23;20174;-88
2022/01/18 09:56:57;;;;;;;99.40;16.27;;;;;;;;;;6248954;23;20267;-89
2022/01/18 09:59:26;;;;;;;92.93;11.73;;;;;;;;;;6248223;23;20178;-89
2022/01/18 10:01:54;;;;;;;189.77;25.57;;;;;;;;;;6246684;23;20174;-89
2022/01/18 10:04:31;;;;;;;218.03;24.27;;;;;;;;;;6248269;22;20205;-88
2022/01/18 10:06:59;;;;;;;152.80;21.33;;;;;;;;;;6246653;23;20203;-89
2022/01/18 10:09:28;;;;;;;87.23;19.80;;;;;;;;;;6246679;23;20173;-89
2022/01/18 10:12:10;;;;;;;181.70;23.83;;;;;;;;;;6246975;23;20211;-88
2022/01/18 10:14:39;;;;;;;167.23;22.93;;;;;;;;;;6246373;23;20224;-89
2022/01/18 10:17:09;;;;;;;141.33;19.90;;;;;;;;;;6245806;23;20194;-89
2022/01/18 10:19:46;;;;;;;153.00;19.27;;;;;;;;;;6246526;23;20174;-89
2022/01/18 10:22:16;;;;;;;125.93;16.80;;;;;;;;;;6247282;23;20172;-90
2022/01/18 10:24:45;;;;;;;184.47;22.10;;;;;;;;;;6247248;23;20243;-89
2022/01/18 10:27:14;;;;;;;166.80;17.10;;;;;;;;;;6253948;23;20204;-89
2022/01/18 10:29:44;;;;;;;236.33;32.20;;;;;;;;;;6248598;23;20173;-91
2022/01/18 10:32:20;;;;;;;51.53;10.03;;;;;;;;;;6246214;23;20174;-90
2022/01/18 10:35:08;;;;;;;176.93;27.30;;;;;;;;;;6246265;23;20168;-89
2022/01/18 10:37:41;;;;;;;177.13;25.57;;;;;;;;;;6246994;23;20162;-90
2022/01/18 10:40:14;;;;;;;183.90;26.00;;;;;;;;;;6247146;23;20218;-90
2022/01/18 10:42:46;;;;;;;153.70;20.83;;;;;;;;;;6246458;23;20170;-91
2022/01/18 10:45:16;;;;;;;102.67;17.30;;;;;;;;;;6245909;23;20206;-90
2022/01/18 10:47:52;;;;;;;183.40;24.73;;;;;;;;;;6245611;23;20168;-89
2022/01/18 10:50:22;;;;;;;200.63;31.70;;;;;;;;;;6238869;23;20275;-88
2022/01/18 10:53:11;;;;;;;190.97;26.40;;;;;;;;;;6238078;23;20742;-88
2022/01/18 10:55:40;;;;;;;178.73;24.03;;;;;;;;;;6243553;23;20275;-90
2022/01/18 10:58:12;;;;;;;54.77;9.93;;;;;;;;;;6246539;23;20185;-90
2022/01/18 11:01:04;;;;;;;;;;;;;;;;;;;;;
2022/01/18 11:04:10;;;;;;;89.90;14.83;;;;;;;;;;6197434;23;20197;-90
2022/01/18 11:06:42;;;;;;;15.37;3.37;;;;;;;;;;6245437;23;20182;-90
2022/01/18 11:09:13;;;;;;;120.23;23.20;;;;;;;;;;6245079;23;20192;-91
2022/01/18 11:11:42;;;;;;;12.13;4.37;;;;;;;;;;6244843;23;20213;-90
2022/01/18 11:14:11;;;;;;;91.47;19.97;;;;;;;;;;6244227;23;20239;-90
2022/01/18 11:16:44;;;;;;;44.90;8.27;;;;;;;;;;6244299;23;20189;-90
2022/01/18 11:19:27;;;;;;;123.17;26.33;;;;;;;;;;6244656;23;20190;-90
2022/01/18 11:21:58;;;;;;;99.33;27.67;;;;;;;;;;6244930;23;20182;-89
2022/01/18 11:24:28;;;;;;;72.13;17.50;;;;;;;;;;6245438;23;20208;-90
2022/01/18 11:26:57;;;;;;;143.27;26.53;;;;;;;;;;6245080;23;20624;-90
2022/01/18 11:29:26;;;;;;;99.17;25.17;;;;;;;;;;6243919;23;20186;-90
2022/01/18 11:31:56;;;;;;;117.70;29.23;;;;;;;;;;6243620;23;20217;-91
2022/01/18 11:34:30;;;;;;;124.90;23.20;;;;;;;;;;6245132;23;20261;-90
2022/01/18 11:37:05;;;;;;;117.60;27.13;;;;;;;;;;6244662;23;20189;-90
2022/01/18 11:39:37;;;;;;;69.23;17.60;;;;;;;;;;6244876;23;20195;-89
2022/01/18 11:42:09;;;;;;;85.90;24.50;;;;;;;;;;6245273;23;20190;-89
2022/01/18 11:44:39;;;;;;;108.93;24.37;;;;;;;;;;6247287;23;20194;-91
2022/01/18 11:47:11;;;;;;;83.73;20.17;;;;;;;;;;6247513;23;20192;-88
2022/01/18 11:49:48;;;;;;;86.67;17.67;;;;;;;;;;6256150;23;20209;-87
2022/01/18 11:52:36;;;;;;;88.37;24.63;;;;;;;;;;6254774;23;20189;-87
2022/01/18 11:55:08;;;;;;;68.70;24.00;;;;;;;;;;6250271;23;20185;-88
2022/01/18 11:57:37;;;;;;;80.80;23.00;;;;;;;;;;6246861;23;20240;-88
2022/01/18 12:00:24;;;;;;;82.37;26.30;;;;;;;;;;6244345;23;20220;-86
2022/01/18 12:02:55;;;;;;;88.57;25.27;;;;;;;;;;6244513;22;20200;-87
2022/01/18 12:05:26;;;;;;;71.50;24.97;;;;;;;;;;6246565;23;20255;-88
2022/01/18 12:07:58;;;;;;;85.77;24.83;;;;;;;;;;6244200;23;20193;-87
2022/01/18 12:10:45;;;;;;;74.13;24.80;;;;;;;;;;6245649;23;20182;-89
2022/01/18 12:13:28;;;;;;;87.23;23.43;;;;;;;;;;6243625;23;20190;-88
2022/01/18 12:15:59;;;;;;;61.67;21.10;;;;;;;;;;6240314;23;20251;-88
2022/01/18 12:18:29;;;;;;;78.60;22.87;;;;;;;;;;6243723;23;20189;-85
2022/01/18 12:20:59;;;;;;;32.17;10.93;;;;;;;;;;6243656;23;20224;-88
2022/01/18 12:23:41;;;;;;;93.17;26.37;;;;;;;;;;6242480;23;20196;-87
2022/01/18 12:26:16;;;;;;;100.53;26.50;;;;;;;;;;6241923;23;20221;-88
2022/01/18 12:32:06;;;;;;;104.70;28.67;;;;;;;;;;6194290;23;20263;-87
2022/01/18 12:34:38;;;;;;;104.97;28.13;;;;;;;;;;6245850;23;20182;-88
2022/01/18 12:37:26;;;;;;;105.80;27.83;;;;;;;;;;6245830;23;20185;-89
2022/01/18 12:40:10;;;;;;;93.50;26.57;;;;;;;;;;6245129;23;20190;-88
2022/01/18 12:45:33;;;;;;;85.00;22.17;;;;;;;;;;6245574;23;20197;-88
2022/01/18 12:48:02;;;;;;;30.67;10.40;;;;;;;;;;6245601;23;20194;-88
2022/01/18 12:50:32;;;;;;;101.97;28.03;;;;;;;;;;6245197;23;20190;-86
2022/01/18 12:53:02;;;;;;;46.10;14.33;;;;;;;;;;6244583;23;20205;-88
2022/01/18 12:55:35;;;;;;;77.63;23.97;;;;;;;;;;6243825;23;20186;-87
2022/01/18 12:58:08;;;;;;;162.53;36.87;;;;;;;;;;6244964;23;20189;-86
2022/01/18 13:00:44;;;;;;;127.57;33.50;;;;;;;;;;6245012;23;20177;-88
2022/01/18 13:03:28;;;;;;;102.63;25.43;;;;;;;;;;6244434;22;20268;-88
2022/01/18 13:05:58;;;;;;;112.30;29.63;;;;;;;;;;6241173;23;20202;-88
2022/01/18 13:08:29;;;;;;;111.30;30.37;;;;;;;;;;6244152;23;20193;-87
2022/01/18 13:10:59;;;;;;;126.27;32.93;;;;;;;;;;6244334;23;20204;-86
2022/01/18 13:13:31;;;;;;;122.20;34.00;;;;;;;;;;6243796;23;20437;-87
2022/01/18 13:24:49;;;;;;;109.90;25.37;;;;;;;;;;6244357;23;20398;-87
2022/01/18 13:27:33;;;;;;;97.83;24.30;;;;;;;;;;6245260;23;20277;-89
2022/01/18 13:30:09;;;;;;;109.73;31.30;;;;;;;;;;6245886;23;20197;-86
2022/01/18 13:32:42;;;;;;;114.50;29.40;;;;;;;;;;6245176;23;20240;-88
2022/01/18 13:35:11;;;;;;;122.13;34.53;;;;;;;;;;6246928;23;20173;-86
2022/01/18 13:37:40;;;;;;;64.23;18.43;;;;;;;;;;6247385;23;20209;-87
2022/01/18 13:40:11;;;;;;;8.57;4.77;;;;;;;;;;6245628;23;20300;-88
2022/01/18 13:42:42;;;;;;;53.97;21.20;;;;;;;;;;6245893;23;20177;-85
2022/01/18 13:45:12;;;;;;;20.13;7.33;;;;;;;;;;6246347;23;20173;-88
2022/01/18 13:47:43;;;;;;;22.60;8.13;;;;;;;;;;6245152;23;20190;-83
2022/01/18 13:50:26;;;;;;;41.77;15.30;;;;;;;;;;6246853;23;20223;-88
2022/01/18 13:52:59;;;;;;;14.30;5.27;;;;;;;;;;6241968;23;20174;-86
2022/01/18 13:55:28;;;;;;;27.37;10.80;;;;;;;;;;6245978;23;20201;-88
2022/01/18 13:57:58;;;;;;;3.03;2.77;;;;;;;;;;6246091;23;20164;-88
2022/01/18 14:00:26;;;;;;;26.57;8.17;;;;;;;;;;6245930;23;20220;-88
2022/01/18 14:02:56;;;;;;;72.13;24.73;;;;;;;;;;6245074;22;20204;-88
2022/01/18 14:05:24;;;;;;;35.83;14.47;;;;;;;;;;6245805;23;20178;-88
2022/01/18 14:08:02;;;;;;;12.83;4.63;;;;;;;;;;6244973;23;20204;-87
2022/01/18 14:10:31;;;;;;;45.43;14.90;;;;;;;;;;6246218;23;20173;-87
2022/01/18 14:13:01;;;;;;;4.63;4.17;;;;;;;;;;6245440;23;20178;-88
2022/01/18 14:15:40;;;;;;;7.10;4.00;;;;;;;;;;6246002;23;20193;-87
2022/01/18 14:18:09;;;;;;;4.13;3.30;;;;;;;;;;6245700;23;20178;-87
2022/01/18 14:20:41;;;;;;;0.77;0.77;;;;;;;;;;6246193;23;20223;-88
2022/01/18 14:23:19;;;;;;;20.23;6.73;;;;;;;;;;6246298;23;20235;-88
2022/01/18 14:25:50;;;;;;;15.13;6.33;;;;;;;;;;6244866;23;20354;-87
2022/01/18 14:28:20;;;;;;;16.13;9.47;;;;;;;;;;6244755;23;20188;-88
2022/01/18 14:30:50;;;;;;;7.27;5.60;;;;;;;;;;6245835;23;20179;-89
2022/01/18 14:33:19;;;;;;;7.60;3.60;;;;;;;;;;6246125;23;20170;-88
2022/01/18 14:35:47;;;;;;;11.60;4.40;;;;;;;;;;6245704;23;20178;-89
2022/01/18 14:38:16;;;;;;;17.03;10.07;;;;;;;;;;6245216;23;20169;-87
2022/01/18 14:40:47;;;;;;;34.10;17.03;;;;;;;;;;6244329;23;20200;-89
2022/01/18 14:43:27;;;;;;;39.57;12.43;;;;;;;;;;6249469;23;20177;-87
2022/01/18 14:46:02;;;;;;;31.50;13.00;;;;;;;;;;6252912;23;20197;-87
2022/01/18 14:48:37;;;;;;;20.77;6.70;;;;;;;;;;6239756;23;20224;-85
2022/01/18 14:51:05;;;;;;;17.17;4.10;;;;;;;;;;6238281;23;20190;-85
2022/01/18 14:53:34;;;;;;;7.17;2.33;;;;;;;;;;6241577;23;20193;-88
2022/01/18 14:56:05;;;;;;;13.20;6.43;;;;;;;;;;6245624;23;20201;-88
2022/01/18 14:58:35;;;;;;;19.87;7.77;;;;;;;;;;6244493;23;20256;-87
2022/01/18 15:01:08;;;;;;;10.80;4.50;;;;;;;;;;6244703;23;20198;-89
2022/01/18 15:03:37;;;;;;;27.53;9.17;;;;;;;;;;6245614;22;20193;-88
2022/01/18 15:06:15;;;;;;;;;;;;;;;;;;;;;
2022/01/18 15:08:57;;;;;;;9.17;4.37;;;;;;;;;;6245337;23;20183;-88
2022/01/18 15:11:36;;;;;;;8.37;3.67;;;;;;;;;;6244990;23;20200;-87
2022/01/18 15:14:06;;;;;;;5.27;2.13;;;;;;;;;;6245777;23;20284;-89
2022/01/18 15:16:36;;;;;;;7.50;3.93;;;;;;;;;;6244884;23;20192;-88
2022/01/18 15:19:06;;;;;;;19.27;5.70;;;;;;;;;;6245644;23;20186;-91
2022/01/18 15:21:39;;;;;;;10.53;4.37;;;;;;;;;;6245185;23;20193;-90
2022/01/18 15:24:08;;;;;;;4.93;3.30;;;;;;;;;;6244965;23;20235;-89
2022/01/18 15:26:42;;;;;;;7.40;4.67;;;;;;;;;;6244427;23;20201;-89
2022/01/18 15:29:11;;;;;;;9.27;3.07;;;;;;;;;;6244958;23;20193;-88
2022/01/18 15:31:56;;;;;;;2.23;2.13;;;;;;;;;;6245335;23;20189;-89
2022/01/18 15:34:25;;;;;;;2.63;2.30;;;;;;;;;;6244382;23;20189;-87
2022/01/18 15:36:54;;;;;;;51.43;10.33;;;;;;;;;;6244769;23;20260;-89
2022/01/18 15:39:25;;;;;;;17.67;4.17;;;;;;;;;;6244460;23;20193;-89
2022/01/18 15:41:56;;;;;;;2.10;2.00;;;;;;;;;;6250081;23;20203;-89
2022/01/18 15:44:33;;;;;;;2.90;2.67;;;;;;;;;;6246643;23;20185;-90
2022/01/18 15:47:23;;;;;;;44.70;6.80;;;;;;;;;;6248901;23;20202;-88
2022/01/18 15:50:05;;;;;;;1.80;1.53;;;;;;;;;;6244979;23;20197;-90
2022/01/18 15:52:38;;;;;;;1.33;1.33;;;;;;;;;;6244586;23;20190;-88
2022/01/18 15:55:24;;;;;;;78.10;8.63;;;;;;;;;;6248536;23;20165;-89
2022/01/18 15:57:58;;;;;;;4.40;2.87;;;;;;;;;;6215245;23;20221;-88
2022/01/18 16:00:27;;;;;;;0.60;0.60;;;;;;;;;;6213814;23;20225;-87
2022/01/18 16:03:08;;;;;;;6.00;3.23;;;;;;;;;;6215937;23;20198;-89
2022/01/18 16:05:37;;;;;;;9.57;3.43;;;;;;;;;;6217199;23;20187;-89
2022/01/18 16:08:06;;;;;;;3.87;3.30;;;;;;;;;;6216541;23;20277;-88
2022/01/18 16:10:35;;;;;;;22.10;6.83;;;;;;;;;;6216737;23;20190;-88
2022/01/18 16:13:03;;;;;;;9.90;3.90;;;;;;;;;;6216244;23;20248;-87
2022/01/18 16:15:33;;;;;;;4.10;2.43;;;;;;;;;;6216870;23;20194;-87
2022/01/18 16:18:05;;;;;;;13.73;3.27;;;;;;;;;;6216868;23;20187;-89
2022/01/18 16:20:35;;;;;;;5.70;2.83;;;;;;;;;;6217107;23;20194;-88
2022/01/18 16:23:03;;;;;;;51.73;9.60;;;;;;;;;;6216287;23;20190;-90
2022/01/18 16:25:32;;;;;;;48.50;13.73;;;;;;;;;;6216752;23;20253;-91
2022/01/18 16:28:05;;;;;;;8.13;3.07;;;;;;;;;;6215901;23;20201;-88
2022/01/18 16:30:36;;;;;;;15.93;5.40;;;;;;;;;;6217331;23;20224;-89
2022/01/18 16:33:15;;;;;;;14.13;5.13;;;;;;;;;;6216534;23;20187;-89
2022/01/18 16:35:56;;;;;;;43.03;10.30;;;;;;;;;;6216702;23;20186;-88
2022/01/18 16:38:24;;;;;;;13.43;4.40;;;;;;;;;;6217214;23;20159;-86
2022/01/18 16:40:55;;;;;;;9.03;3.63;;;;;;;;;;6220405;23;20178;-88
2022/01/18 16:43:24;;;;;;;10.20;4.30;;;;;;;;;;6217528;23;20181;-89
2022/01/18 16:45:52;;;;;;;34.13;10.33;;;;;;;;;;6217293;23;20174;-91
2022/01/18 16:48:21;;;;;;;54.83;16.60;;;;;;;;;;6218412;23;20508;-89
2022/01/18 16:51:00;;;;;;;28.43;10.00;;;;;;;;;;6225452;23;20186;-88
2022/01/18 16:53:29;;;;;;;64.03;14.97;;;;;;;;;;6231375;23;20176;-90
2022/01/18 16:56:05;;;;;;;68.67;13.63;;;;;;;;;;6247046;23;20235;-89
2022/01/18 16:58:37;;;;;;;58.60;16.63;;;;;;;;;;6268133;23;20170;-90
2022/01/18 17:01:10;;;;;;;74.83;20.23;;;;;;;;;;6267103;23;20201;-90
2022/01/18 17:03:44;;;;;;;68.67;20.27;;;;;;;;;;6269352;22;20268;-89
2022/01/18 17:06:22;;;;;;;77.23;22.63;;;;;;;;;;6269958;23;20158;-89
2022/01/18 17:08:59;;;;;;;5.87;2.00;;;;;;;;;;6243960;23;20212;-89
2022/01/18 17:11:29;;;;;;;74.23;17.20;;;;;;;;;;6269363;23;20244;-88
2022/01/18 17:14:12;;;;;;;54.33;16.67;;;;;;;;;;6269648;23;20185;-89
2022/01/18 17:16:42;;;;;;;88.87;17.50;;;;;;;;;;6269435;23;20237;-89
2022/01/18 17:19:10;;;;;;;18.73;3.23;;;;;;;;;;6269933;23;20238;-89
2022/01/18 17:21:49;;;;;;;24.47;9.27;;;;;;;;;;6245270;23;20158;-89
2022/01/18 17:27:10;;;;;;;41.80;14.00;;;;;;;;;;6271030;23;20180;-88
2022/01/18 17:29:45;;;;;;;15.13;4.63;;;;;;;;;;6270555;23;20185;-88
2022/01/18 17:35:02;;;;;;;33.07;13.80;;;;;;;;;;6269399;23;20169;-87
2022/01/18 17:37:40;;;;;;;16.40;4.60;;;;;;;;;;6270948;23;20157;-88
2022/01/18 17:40:20;;;;;;;28.27;7.47;;;;;;;;;;6270162;23;20174;-89
2022/01/18 17:42:52;;;;;;;49.13;17.97;;;;;;;;;;6270688;23;20177;-89
2022/01/18 17:45:36;;;;;;;38.77;9.77;;;;;;;;;;6271074;23;20184;-90
2022/01/18 17:48:12;;;;;;;46.30;16.10;;;;;;;;;;6271195;23;20201;-90
2022/01/18 17:50:42;;;;;;;11.93;3.80;;;;;;;;;;6266594;23;20218;-89
2022/01/18 17:53:13;;;;;;;20.27;8.43;;;;;;;;;;6265538;23;20177;-89
2022/01/18 17:55:46;;;;;;;17.73;7.03;;;;;;;;;;6264923;23;20200;-90
2022/01/18 17:58:16;;;;;;;6.10;3.70;;;;;;;;;;6265371;23;20170;-89
2022/01/18 18:00:45;;;;;;;10.90;6.47;;;;;;;;;;6262059;23;20174;-89
2022/01/18 18:03:14;;;;;;;17.70;3.40;;;;;;;;;;6262661;22;20248;-90
2022/01/18 18:05:43;;;;;;;3.43;2.37;;;;;;;;;;6262063;23;20200;-90
2022/01/18 18:08:16;;;;;;;6.93;4.17;;;;;;;;;;6263738;23;20190;-90
2022/01/18 18:10:46;;;;;;;8.07;5.87;;;;;;;;;;6238173;23;20197;-89
2022/01/18 18:13:15;;;;;;;12.70;4.87;;;;;;;;;;6266229;23;20177;-90
2022/01/18 18:15:47;;;;;;;14.70;5.97;;;;;;;;;;6265565;23;20174;-90
2022/01/18 18:18:15;;;;;;;31.87;10.33;;;;;;;;;;6266251;23;20246;-90
2022/01/18 18:20:44;;;;;;;10.43;5.20;;;;;;;;;;6265621;23;20180;-89
2022/01/18 18:23:13;;;;;;;41.37;17.37;;;;;;;;;;6264683;23;20203;-90
2022/01/18 18:25:43;;;;;;;50.33;18.63;;;;;;;;;;6264807;23;20174;-90
2022/01/18 18:28:12;;;;;;;25.40;11.77;;;;;;;;;;6264635;23;20176;-89
2022/01/18 18:30:41;;;;;;;14.33;4.23;;;;;;;;;;6266140;23;20174;-89
2022/01/18 18:33:24;;;;;;;7.83;3.27;;;;;;;;;;6265821;23;20223;-89
2022/01/18 18:35:54;;;;;;;15.83;8.30;;;;;;;;;;6264175;23;20259;-90
2022/01/18 18:38:31;;;;;;;20.63;8.30;;;;;;;;;;6264873;23;20171;-90
2022/01/18 18:41:03;;;;;;;23.93;11.70;;;;;;;;;;6264117;23;20175;-90
2022/01/18 18:43:40;;;;;;;6.60;4.20;;;;;;;;;;6264012;23;20181;-90
2022/01/18 18:46:09;;;;;;;4.40;3.97;;;;;;;;;;6263006;23;20165;-90
2022/01/18 18:48:38;;;;;;;3.37;2.27;;;;;;;;;;6263113;23;20221;-90
2022/01/18 18:51:08;;;;;;;13.83;9.20;;;;;;;;;;6262789;23;20175;-90
2022/01/18 18:53:39;;;;;;;16.57;7.07;;;;;;;;;;6261878;23;20179;-90
2022/01/18 18:56:10;;;;;;;1.50;1.37;;;;;;;;;;6261863;23;20206;-90
2022/01/18 18:59:04;;;;;;;14.40;4.60;;;;;;;;;;6261669;23;20196;-90
2022/01/18 19:01:43;;;;;;;19.53;8.73;;;;;;;;;;6262794;23;20174;-90
2022/01/18 19:04:15;;;;;;;10.53;6.47;;;;;;;;;;6262905;22;20210;-90
2022/01/18 19:06:44;;;;;;;3.43;2.37;;;;;;;;;;6262047;23;20185;-90
2022/01/18 19:09:12;;;;;;;4.60;3.90;;;;;;;;;;6263201;23;20200;-90
2022/01/18 19:11:43;;;;;;;6.70;2.97;;;;;;;;;;6262082;23;20175;-90
2022/01/18 19:14:15;;;;;;;8.00;5.23;;;;;;;;;;6261595;23;20171;-90
2022/01/18 19:16:43;;;;;;;4.00;3.77;;;;;;;;;;6262307;23;20175;-90
2022/01/18 19:19:12;;;;;;;7.30;4.57;;;;;;;;;;6261240;23;20246;-90
2022/01/18 19:21:42;;;;;;;19.97;10.63;;;;;;;;;;6260447;23;20178;-90
2022/01/18 19:24:11;;;;;;;7.33;5.50;;;;;;;;;;6259669;23;20173;-89
2022/01/18 19:26:43;;;;;;;2.07;1.67;;;;;;;;;;6257776;23;20177;-90
2022/01/18 19:29:12;;;;;;;20.37;9.13;;;;;;;;;;6258610;23;20194;-90
2022/01/18 19:31:44;;;;;;;37.23;12.97;;;;;;;;;;6257570;23;20175;-89
2022/01/18 19:34:14;;;;;;;27.43;10.37;;;;;;;;;;6258348;23;20228;-90
2022/01/18 19:36:44;;;;;;;30.37;14.90;;;;;;;;;;6258419;23;20170;-90
2022/01/18 19:39:13;;;;;;;38.13;15.57;;;;;;;;;;6257918;23;20179;-89
2022/01/18 19:41:50;;;;;;;18.40;11.20;;;;;;;;;;6258847;23;20200;-89
2022/01/18 19:44:19;;;;;;;23.10;11.60;;;;;;;;;;6258797;23;20170;-90
2022/01/18 19:46:48;;;;;;;18.77;10.13;;;;;;;;;;6259002;23;20169;-90
2022/01/18 19:49:16;;;;;;;19.97;8.63;;;;;;;;;;6257493;23;20255;-90
2022/01/18 19:51:45;;;;;;;17.27;7.77;;;;;;;;;;6257858;23;20173;-90
2022/01/18 19:54:13;;;;;;;28.43;11.57;;;;;;;;;;6231922;23;20173;-89
2022/01/18 19:56:44;;;;;;;30.83;17.33;;;;;;;;;;6258582;23;20253;-89
2022/01/18 19:59:13;;;;;;;30.43;17.37;;;;;;;;;;6258508;23;20181;-89
2022/01/18 20:01:42;;;;;;;27.00;14.67;;;;;;;;;;6258656;23;20174;-89
2022/01/18 20:04:12;;;;;;;28.93;13.60;;;;;;;;;;6258732;22;20244;-90
2022/01/18 20:06:41;;;;;;;28.00;14.43;;;;;;;;;;6258712;23;20173;-89
2022/01/18 20:09:13;;;;;;;48.63;28.03;;;;;;;;;;6258325;23;20228;-90
2022/01/18 20:11:41;;;;;;;62.60;35.03;;;;;;;;;;6258732;23;20173;-89
2022/01/18 20:14:11;;;;;;;60.30;31.53;;;;;;;;;;6258862;23;20173;-89
2022/01/18 20:16:40;;;;;;;22.47;14.13;;;;;;;;;;6259714;23;20162;-89
2022/01/18 20:19:09;;;;;;;56.83;28.37;;;;;;;;;;6258852;23;20174;-89
2022/01/18 20:21:37;;;;;;;42.67;20.67;;;;;;;;;;6258913;23;20173;-89
2022/01/18 20:24:06;;;;;;;45.93;24.00;;;;;;;;;;6258998;23;20227;-90
2022/01/18 20:26:35;;;;;;;36.90;19.07;;;;;;;;;;6258767;23;20173;-89
2022/01/18 20:29:03;;;;;;;37.90;18.90;;;;;;;;;;6259291;23;20170;-89
2022/01/18 20:31:33;;;;;;;31.57;21.37;;;;;;;;;;6259734;23;20170;-89
2022/01/18 20:34:02;;;;;;;34.97;20.73;;;;;;;;;;6259868;23;20177;-89
2022/01/18 20:36:31;;;;;;;45.97;23.80;;;;;;;;;;6260667;23;20174;-89
2022/01/18 20:39:00;;;;;;;26.90;14.87;;;;;;;;;;6260763;23;20200;-90
2022/01/18 20:43:34;;;;;;;50.87;27.93;;;;;;;;;;6261805;23;20173;-89
2022/01/18 20:44:19;;;;;;;49.50;23.87;;;;;;;;;;6262293;23;20174;-89
2022/01/18 20:46:51;;;;;;;24.67;16.93;;;;;;;;;;6260783;23;20166;-89
2022/01/18 20:49:20;;;;;;;53.33;31.03;;;;;;;;;;6261862;23;20231;-90
2022/01/18 20:51:48;;;;;;;43.30;22.80;;;;;;;;;;6263285;23;20173;-90
2022/01/18 20:54:17;;;;;;;61.03;25.37;;;;;;;;;;6262911;23;20177;-89
2022/01/18 20:56:51;;;;;;;33.47;21.10;;;;;;;;;;6262419;23;20232;-89
2022/01/18 20:59:20;;;;;;;54.53;29.67;;;;;;;;;;6263309;23;20231;-89
2022/01/18 21:01:51;;;;;;;55.87;29.87;;;;;;;;;;6263319;23;20201;-90
2022/01/18 21:04:21;;;;;;;47.27;26.43;;;;;;;;;;6263086;22;20206;-89
2022/01/18 21:06:50;;;;;;;33.90;19.43;;;;;;;;;;6263042;23;20216;-89
2022/01/18 21:09:23;;;;;;;48.33;24.13;;;;;;;;;;6262676;23;20170;-89
2022/01/18 21:11:52;;;;;;;24.63;14.40;;;;;;;;;;6262469;23;20178;-89
2022/01/18 21:14:26;;;;;;;37.80;20.30;;;;;;;;;;6262449;23;20178;-89
2022/01/18 21:16:54;;;;;;;37.67;16.93;;;;;;;;;;6262366;23;20174;-89
2022/01/18 21:19:24;;;;;;;35.87;20.03;;;;;;;;;;6261967;23;20179;-89
2022/01/18 21:21:53;;;;;;;36.50;20.40;;;;;;;;;;6261677;23;20184;-89
2022/01/18 21:24:21;;;;;;;24.80;16.33;;;;;;;;;;6262161;23;20173;-90
2022/01/18 21:26:50;;;;;;;22.37;15.80;;;;;;;;;;6261165;23;20173;-89
2022/01/18 21:29:19;;;;;;;31.70;18.67;;;;;;;;;;6260963;23;20178;-90
2022/01/18 21:31:48;;;;;;;36.77;20.17;;;;;;;;;;6260315;23;20197;-90
2022/01/18 21:34:16;;;;;;;25.07;17.10;;;;;;;;;;6261363;23;20200;-89
2022/01/18 21:36:46;;;;;;;16.17;7.23;;;;;;;;;;6260351;23;20231;-90
2022/01/18 21:39:15;;;;;;;26.20;13.53;;;;;;;;;;6260295;23;20178;-89
2022/01/18 21:41:44;;;;;;;25.37;15.33;;;;;;;;;;6260011;23;20245;-90
2022/01/18 21:44:14;;;;;;;32.80;12.53;;;;;;;;;;6260622;23;20208;-90
2022/01/18 21:46:43;;;;;;;8.80;5.00;;;;;;;;;;6260246;23;20174;-89
2022/01/18 21:49:11;;;;;;;17.07;11.13;;;;;;;;;;6258659;23;20467;-90
2022/01/18 21:51:40;;;;;;;28.17;14.20;;;;;;;;;;6257948;23;20207;-90
2022/01/18 21:54:10;;;;;;;28.23;15.57;;;;;;;;;;6258900;23;20173;-90
2022/01/18 21:56:39;;;;;;;27.90;15.80;;;;;;;;;;6257612;23;20197;-89
2022/01/18 21:59:09;;;;;;;23.70;15.87;;;;;;;;;;6258572;23;20166;-89
2022/01/18 22:01:41;;;;;;;22.23;10.30;;;;;;;;;;6258286;23;20165;-89
2022/01/18 22:04:10;;;;;;;22.67;12.60;;;;;;;;;;6258193;22;20220;-90
2022/01/18 22:06:39;;;;;;;14.93;7.07;;;;;;;;;;6258242;23;20185;-89
2022/01/18 22:09:07;;;;;;;11.53;6.50;;;;;;;;;;6258277;23;20178;-89
2022/01/18 22:11:37;;;;;;;27.73;12.30;;;;;;;;;;6258166;23;20220;-89
2022/01/18 22:14:06;;;;;;;30.13;15.77;;;;;;;;;;6257861;23;20174;-90
2022/01/18 22:16:34;;;;;;;35.03;15.90;;;;;;;;;;6257814;23;20174;-90
2022/01/18 22:19:03;;;;;;;24.47;12.83;;;;;;;;;;6257591;23;20200;-89
2022/01/18 22:21:31;;;;;;;29.67;15.00;;;;;;;;;;6257946;23;20177;-90
2022/01/18 22:24:00;;;;;;;29.23;13.50;;;;;;;;;;6256882;23;20173;-89
2022/01/18 22:26:28;;;;;;;32.40;13.50;;;;;;;;;;6257034;23;20178;-90
2022/01/18 22:28:58;;;;;;;28.93;13.93;;;;;;;;;;6257473;23;20200;-89
2022/01/18 22:31:26;;;;;;;24.07;13.83;;;;;;;;;;6257221;23;20185;-90
2022/01/18 22:33:55;;;;;;;14.90;5.83;;;;;;;;;;6257584;23;20194;-89
2022/01/18 22:36:23;;;;;;;12.07;6.33;;;;;;;;;;6256515;23;20180;-90
2022/01/18 22:38:52;;;;;;;20.57;9.40;;;;;;;;;;6258268;23;20584;-89
2022/01/18 22:41:23;;;;;;;15.17;5.83;;;;;;;;;;6257110;23;20177;-89
2022/01/18 22:43:52;;;;;;;27.10;16.67;;;;;;;;;;6256871;23;20173;-90
2022/01/18 22:46:22;;;;;;;27.37;13.97;;;;;;;;;;6257225;23;20224;-90
2022/01/18 22:48:50;;;;;;;29.17;15.13;;;;;;;;;;6257072;23;20200;-89
2022/01/18 22:51:19;;;;;;;34.67;16.57;;;;;;;;;;6257107;23;20193;-90
2022/01/18 22:53:47;;;;;;;28.73;16.07;;;;;;;;;;6256873;23;20174;-89
2022/01/18 22:56:16;;;;;;;37.73;18.70;;;;;;;;;;6257951;23;20180;-89
2022/01/18 22:58:44;;;;;;;21.37;9.00;;;;;;;;;;6256497;23;20206;-89
2022/01/18 23:01:14;;;;;;;1.90;1.90;;;;;;;;;;6256867;23;20170;-90
2022/01/18 23:03:45;;;;;;;30.90;11.60;;;;;;;;;;6256869;22;20241;-89
2022/01/18 23:06:13;;;;;;;23.93;12.37;;;;;;;;;;6256936;23;20181;-89
2022/01/18 23:08:42;;;;;;;10.27;7.23;;;;;;;;;;6256713;23;20174;-89
2022/01/18 23:11:10;;;;;;;21.20;12.37;;;;;;;;;;6256208;23;20193;-89
2022/01/18 23:13:39;;;;;;;17.77;6.33;;;;;;;;;;6257300;23;20177;-89
2022/01/18 23:16:08;;;;;;;29.87;11.20;;;;;;;;;;6256357;23;20170;-90
2022/01/18 23:18:36;;;;;;;41.70;16.97;;;;;;;;;;6257017;23;20250;-90
2022/01/18 23:21:07;;;;;;;28.03;12.90;;;;;;;;;;6255883;23;20172;-90
2022/01/18 23:23:35;;;;;;;2.87;2.77;;;;;;;;;;6256665;23;20221;-90
2022/01/18 23:26:04;;;;;;;35.07;11.27;;;;;;;;;;6255779;23;20178;-90
2022/01/18 23:28:32;;;;;;;21.50;9.17;;;;;;;;;;6255768;23;20174;-90
2022/01/18 23:31:01;;;;;;;8.47;4.63;;;;;;;;;;6255795;23;20198;-89
2022/01/18 23:33:30;;;;;;;18.77;10.60;;;;;;;;;;6255482;23;20178;-90
2022/01/18 23:36:02;;;;;;;35.43;13.07;;;;;;;;;;6255639;23;20181;-89
2022/01/18 23:38:35;;;;;;;22.43;7.13;;;;;;;;;;6255520;23;20182;-89
2022/01/18 23:43:56;;;;;;;45.83;23.13;;;;;;;;;;6233054;23;20174;-90
2022/01/18 23:46:25;;;;;;;7.60;5.10;;;;;;;;;;6254820;23;20174;-89
2022/01/18 23:48:53;;;;;;;21.90;9.77;;;;;;;;;;6255241;23;20170;-90
2022/01/18 23:51:22;;;;;;;30.57;12.97;;;;;;;;;;6255099;23;20200;-90
2022/01/18 23:53:52;;;;;;;58.43;20.97;;;;;;;;;;6256203;23;20174;-89
2022/01/18 23:56:21;;;;;;;85.80;21.70;;;;;;;;;;6255668;23;20173;-90
2022/01/18 23:58:50;;;;;;;20.13;7.40;;;;;;;;;;6255183;23;20182;-90
